createdAt,value
2022-10-20T00:01:34.038Z,658.59
2022-10-20T00:05:31.681Z,658.59
2022-10-20T00:09:32.348Z,0.62
2022-10-20T00:13:32.160Z,0.62
2022-10-20T00:17:31.999Z,0.62
2022-10-20T00:21:32.126Z,0.62
2022-10-20T00:25:31.355Z,0.62
2022-10-20T00:29:32.174Z,0.62
2022-10-20T00:33:31.604Z,0.62
2022-10-20T00:37:36.553Z,0.62
2022-10-20T00:41:31.660Z,0.62
2022-10-20T00:45:32.141Z,0.61
2022-10-20T00:49:31.430Z,0.61
2022-10-20T00:53:32.652Z,0.61
2022-10-20T00:57:32.328Z,0.61
2022-10-20T01:01:37.392Z,647.02
2022-10-20T01:05:32.235Z,647.02
2022-10-20T01:09:31.826Z,647.02
2022-10-20T01:13:31.342Z,647.02
2022-10-20T01:17:31.769Z,647.02
2022-10-20T01:21:31.845Z,647.02
2022-10-20T01:25:31.307Z,647.02
2022-10-20T01:29:31.242Z,647.02
2022-10-20T01:33:32.319Z,647.02
2022-10-20T01:37:59.543Z,647.02
2022-10-20T01:41:31.480Z,647.02
2022-10-20T01:45:31.668Z,647.02
2022-10-20T01:49:31.548Z,647.02
2022-10-20T01:53:31.987Z,647.02
2022-10-20T01:57:31.757Z,647.02
2022-10-20T02:01:35.336Z,647.02
2022-10-20T02:05:31.729Z,647.02
2022-10-20T02:09:32.131Z,9782.09
2022-10-20T02:13:32.249Z,9782.09
2022-10-20T02:17:31.603Z,9782.09
2022-10-20T02:21:31.339Z,9782.09
2022-10-20T02:25:31.589Z,9782.09
2022-10-20T02:29:31.393Z,9782.09
2022-10-20T02:33:32.323Z,9782.09
2022-10-20T02:37:32.219Z,9782.09
2022-10-20T02:41:32.235Z,9782.09
2022-10-20T02:45:31.536Z,9782.09
2022-10-20T02:49:36.253Z,9782.09
2022-10-20T02:53:31.425Z,9782.09
2022-10-20T02:57:35.374Z,9782.09
2022-10-20T03:01:34.700Z,9782.09
2022-10-20T03:05:31.724Z,9782.09
2022-10-20T03:09:32.181Z,9782.09
2022-10-20T03:13:34.248Z,9782.09
2022-10-20T03:17:31.580Z,18494.3
2022-10-20T03:21:32.158Z,18494.3
2022-10-20T03:25:31.584Z,18494.3
2022-10-20T03:29:31.918Z,18494.3
2022-10-20T03:33:31.873Z,18494.3
2022-10-20T03:37:31.966Z,18494.3
2022-10-20T03:41:31.901Z,18494.3
2022-10-20T03:45:31.579Z,18494.3
2022-10-20T03:49:32.028Z,18494.3
2022-10-20T03:53:32.797Z,18494.3
2022-10-20T03:57:31.447Z,18494.3
2022-10-20T04:01:33.255Z,18494.3
2022-10-20T04:05:31.705Z,18494.3
2022-10-20T04:09:32.560Z,18494.3
2022-10-20T04:13:32.169Z,18494.3
2022-10-20T04:17:32.296Z,18494.3
2022-10-20T04:21:35.609Z,18494.3
2022-10-20T04:25:31.164Z,18494.3
2022-10-20T04:29:32.182Z,18494.3
2022-10-20T04:33:31.725Z,18494.3
2022-10-20T04:37:31.493Z,18494.3
2022-10-20T04:41:37.002Z,18494.3
2022-10-20T04:45:32.020Z,18494.3
2022-10-20T04:49:31.564Z,18494.3
2022-10-20T04:53:31.493Z,18494.3
2022-10-20T04:57:31.749Z,18494.3
2022-10-20T05:01:34.292Z,18494.3
2022-10-20T05:05:31.528Z,18494.3
2022-10-20T05:09:32.973Z,18494.3
2022-10-20T05:13:33.787Z,18494.3
2022-10-20T05:17:32.772Z,18494.3
2022-10-20T05:21:54.679Z,18494.3
2022-10-20T05:26:09.112Z,18494.3
2022-10-20T05:29:31.377Z,18494.3
2022-10-20T05:33:32.324Z,18494.3
2022-10-20T05:37:38.548Z,18494.3
2022-10-20T05:41:33.520Z,18494.3
2022-10-20T05:45:31.485Z,18494.3
2022-10-20T05:49:38.512Z,18494.3
2022-10-20T05:53:32.284Z,18494.3
2022-10-20T05:57:31.778Z,18494.3
2022-10-20T06:01:34.589Z,18494.3
2022-10-20T06:05:32.187Z,18494.3
2022-10-20T06:09:31.943Z,18494.3
2022-10-20T06:13:32.383Z,18494.3
2022-10-20T06:17:31.370Z,18494.3
2022-10-20T06:21:31.877Z,18494.3
2022-10-20T06:25:31.582Z,18494.3
2022-10-20T06:29:37.920Z,18494.3
2022-10-20T06:33:33.693Z,18494.3
2022-10-20T06:37:32.007Z,18494.3
2022-10-20T06:41:32.085Z,18494.3
2022-10-20T06:45:32.150Z,18494.3
2022-10-20T06:49:32.895Z,18494.3
2022-10-20T06:53:31.938Z,18494.3
2022-10-20T06:57:31.940Z,18494.3
2022-10-20T07:01:34.432Z,18494.3
2022-10-20T07:05:32.172Z,18494.3
2022-10-20T07:09:32.139Z,18494.3
2022-10-20T07:13:32.120Z,18494.3
2022-10-20T07:17:32.186Z,18494.3
2022-10-20T07:21:35.746Z,18494.3
2022-10-20T07:25:32.036Z,18494.3
2022-10-20T07:29:31.458Z,18494.3
2022-10-20T07:33:32.527Z,18494.3
2022-10-20T07:37:32.633Z,18494.3
2022-10-20T07:41:35.227Z,18494.3
2022-10-20T07:45:31.351Z,18494.3
2022-10-20T07:50:07.811Z,18494.3
2022-10-20T07:53:32.081Z,18494.3
2022-10-20T07:57:31.379Z,18494.3
2022-10-20T08:01:34.760Z,18494.3
2022-10-20T08:05:32.201Z,18494.3
2022-10-20T08:09:33.777Z,18494.3
2022-10-20T08:13:31.934Z,18494.3
2022-10-20T08:17:36.927Z,18494.3
2022-10-20T08:21:35.057Z,18494.3
2022-10-20T08:25:31.944Z,86106.7
2022-10-20T08:29:34.553Z,8.14
2022-10-20T08:33:32.109Z,8.14
2022-10-20T08:37:31.314Z,3.23
2022-10-20T08:41:43.548Z,2.04
2022-10-20T08:45:37.337Z,2.04
2022-10-20T08:49:31.241Z,1.57
2022-10-20T08:53:31.612Z,1.32
2022-10-20T08:57:33.427Z,1.32
2022-10-20T09:01:40.392Z,1224.49
2022-10-20T09:05:34.480Z,1.06
2022-10-20T09:09:32.206Z,1.06
2022-10-20T09:13:38.639Z,1.06
2022-10-20T09:18:08.336Z,1.06
2022-10-20T09:21:31.569Z,1.06
2022-10-20T09:25:31.292Z,1.06
2022-10-20T09:29:59.916Z,1.06
2022-10-20T09:34:06.844Z,1.06
2022-10-20T09:37:31.958Z,1.06
2022-10-20T09:41:31.547Z,1.06
2022-10-20T09:45:31.600Z,1.06
2022-10-20T09:49:32.028Z,1.06
2022-10-20T09:53:33.141Z,1.06
2022-10-20T09:57:32.166Z,1.06
2022-10-20T10:01:57.366Z,1.06
2022-10-20T10:05:31.780Z,1.06
2022-10-20T10:09:32.529Z,1.06
2022-10-20T10:13:36.444Z,15.03
2022-10-20T10:17:31.566Z,4612.62
2022-10-20T10:21:32.156Z,4052.26
2022-10-20T10:25:31.943Z,4052.26
2022-10-20T10:29:31.496Z,4052.26
2022-10-20T10:33:32.245Z,4052.26
2022-10-20T10:37:35.026Z,4052.26
2022-10-20T10:41:32.021Z,4052.26
2022-10-20T10:45:31.994Z,4052.26
2022-10-20T10:49:32.133Z,4052.26
2022-10-20T10:53:32.149Z,4052.26
2022-10-20T10:57:35.590Z,4052.26
2022-10-20T11:01:37.321Z,4052.26
2022-10-20T11:05:32.344Z,4052.26
2022-10-20T11:09:32.148Z,4052.26
2022-10-20T11:13:38.198Z,4052.26
2022-10-20T11:17:32.159Z,4052.26
2022-10-20T11:21:31.642Z,4052.26
2022-10-20T11:25:31.913Z,22140.1
2022-10-20T11:29:31.497Z,22140.1
2022-10-20T11:33:32.451Z,4.41
2022-10-20T11:37:32.180Z,2.21
2022-10-20T11:41:38.564Z,2.21
2022-10-20T11:45:31.961Z,1.55
2022-10-20T11:49:37.700Z,1.29
2022-10-20T11:53:31.948Z,1.29
2022-10-20T11:57:31.794Z,1.09
2022-10-20T12:01:34.333Z,0.99
2022-10-20T12:05:32.062Z,0.99
2022-10-20T12:09:59.222Z,0.95
2022-10-20T12:13:32.400Z,0.95
2022-10-20T12:17:32.237Z,0.95
2022-10-20T12:21:34.410Z,0.96
2022-10-20T12:25:32.580Z,0.95
2022-10-20T12:29:32.261Z,0.95
2022-10-20T12:33:32.652Z,0.86
2022-10-20T12:37:31.804Z,0.86
2022-10-20T12:41:31.358Z,0.86
2022-10-20T12:45:31.671Z,0.87
2022-10-20T12:49:34.719Z,0.87
2022-10-20T12:53:31.553Z,0.87
2022-10-20T12:57:31.776Z,1000.92
2022-10-20T13:01:34.733Z,969.49
2022-10-20T13:05:32.217Z,969.49
2022-10-20T13:09:31.671Z,0.87
2022-10-20T13:17:31.329Z,908.86
2022-10-20T13:21:32.235Z,0.83
2022-10-20T13:25:41.777Z,0.8
2022-10-20T13:29:32.140Z,0.8
2022-10-20T13:34:37.896Z,0.79
2022-10-20T13:37:34.265Z,0.79
2022-10-20T13:41:36.003Z,0.79
2022-10-20T13:45:39.129Z,0.78
2022-10-20T13:49:31.740Z,796.16
2022-10-20T13:53:32.674Z,796.16
2022-10-20T13:57:32.389Z,782.85
2022-10-20T14:01:34.370Z,0.75
2022-10-20T14:05:31.829Z,0.75
2022-10-20T14:09:45.524Z,0.73
2022-10-20T14:13:32.562Z,756.71
2022-10-20T14:17:31.763Z,756.71
2022-10-20T14:21:32.008Z,769.7
2022-10-20T14:25:32.165Z,0.73
2022-10-20T14:29:37.367Z,0.73
2022-10-20T14:33:31.404Z,0.72
2022-10-20T14:37:31.679Z,0.7
2022-10-20T14:41:31.908Z,0.7
2022-10-20T14:45:50.527Z,731.23
2022-10-20T14:49:31.548Z,0.69
2022-10-20T14:53:39.273Z,0.69
2022-10-20T14:57:31.922Z,0.68
2022-10-20T15:01:36.224Z,0.68
2022-10-20T15:05:32.850Z,731.23
2022-10-20T15:09:40.611Z,0.68
2022-10-20T15:13:37.894Z,0.68
2022-10-20T15:17:32.020Z,0.67
2022-10-20T15:21:32.037Z,706.39
2022-10-20T15:25:31.401Z,706.39
2022-10-20T15:29:31.632Z,0.68
2022-10-20T15:33:31.614Z,0.68
2022-10-20T15:37:38.294Z,0.68
2022-10-20T15:41:32.032Z,0.68
2022-10-20T15:45:32.245Z,0.68
2022-10-20T15:49:31.698Z,0.68
2022-10-20T15:53:32.610Z,0.68
2022-10-20T15:57:31.761Z,0.68
2022-10-20T16:01:39.469Z,694.21
2022-10-20T16:05:31.984Z,682.18
2022-10-20T16:09:37.734Z,0.63
2022-10-20T16:13:32.696Z,0.63
2022-10-20T16:17:32.583Z,0.63
2022-10-20T16:21:31.273Z,0.63
2022-10-20T16:25:31.640Z,0.63
2022-10-20T16:29:32.027Z,0.63
2022-10-20T16:33:31.847Z,0.63
2022-10-20T16:37:32.266Z,0.63
2022-10-20T16:41:32.002Z,0.63
2022-10-20T16:45:31.965Z,0.63
2022-10-20T16:49:34.253Z,0.63
2022-10-20T16:53:32.015Z,0.63
2022-10-20T16:57:37.543Z,0.63
2022-10-20T17:01:35.331Z,0.63
2022-10-20T17:05:38.058Z,0.63
2022-10-20T17:09:31.912Z,0.63
2022-10-20T17:13:31.921Z,0.63
2022-10-20T17:17:36.633Z,0.63
2022-10-20T17:21:31.283Z,0.63
2022-10-20T17:25:31.691Z,0.63
2022-10-20T17:29:37.132Z,8.23
2022-10-20T17:33:36.853Z,3.12
2022-10-20T17:37:31.143Z,2.82
2022-10-20T17:41:31.891Z,1.62
2022-10-20T17:45:33.843Z,1.62
2022-10-20T17:49:31.266Z,1.62
2022-10-20T17:53:32.559Z,1.62
2022-10-20T17:57:32.310Z,1.62
2022-10-20T18:02:14.742Z,1.62
2022-10-20T18:05:32.199Z,1.62
2022-10-20T18:09:32.760Z,1.62
2022-10-20T18:13:32.057Z,1.62
2022-10-20T18:17:31.759Z,1.62
2022-10-20T18:21:32.027Z,1.62
2022-10-20T18:25:34.524Z,1.62
2022-10-20T18:29:33.633Z,1.62
2022-10-20T18:33:32.111Z,1.62
2022-10-20T18:37:36.996Z,1.62
2022-10-20T18:41:32.192Z,1.62
2022-10-20T18:45:37.195Z,1.62
2022-10-20T18:49:31.790Z,10.6
2022-10-20T18:53:32.093Z,10.6
2022-10-20T18:57:32.151Z,10.6
2022-10-20T19:01:34.705Z,10.6
2022-10-20T19:05:32.251Z,10.6
2022-10-20T19:09:32.313Z,10.6
2022-10-20T19:13:35.930Z,10.6
2022-10-20T19:17:31.668Z,10.6
2022-10-20T19:21:32.118Z,10.6
2022-10-20T19:25:31.851Z,10.6
2022-10-20T19:29:32.827Z,10.6
2022-10-20T19:33:37.597Z,10.6
2022-10-20T19:37:31.463Z,10.6
2022-10-20T19:41:35.980Z,10.6
2022-10-20T19:45:32.070Z,10.6
2022-10-20T19:49:32.276Z,10.6
2022-10-20T19:53:32.730Z,10.6
2022-10-20T19:57:31.558Z,10.6
2022-10-20T20:01:32.206Z,10.6
2022-10-20T20:05:31.749Z,10.6
2022-10-20T20:09:31.843Z,10.6
2022-10-20T20:13:31.920Z,10.6
2022-10-20T20:17:39.531Z,10.6
2022-10-20T20:21:31.813Z,10.6
2022-10-20T20:25:32.162Z,10.6
2022-10-20T20:29:31.333Z,10.6
2022-10-20T20:33:36.965Z,10.6
2022-10-20T20:37:31.850Z,10.6
2022-10-20T20:41:32.004Z,10.6
2022-10-20T20:45:41.046Z,10.6
2022-10-20T20:49:31.406Z,10.6
2022-10-20T20:57:34.791Z,10.6
2022-10-20T21:01:34.591Z,10.6
2022-10-20T21:05:37.229Z,10.6
2022-10-20T21:09:32.717Z,10.6
2022-10-20T21:13:31.941Z,10.6
2022-10-20T21:17:31.308Z,10.6
2022-10-20T21:21:32.372Z,10.6
2022-10-20T21:25:31.558Z,10.6
2022-10-20T21:29:31.502Z,10.6
2022-10-20T21:33:31.993Z,10.6
2022-10-20T21:37:32.224Z,10.6
2022-10-20T21:41:31.786Z,10.6
2022-10-20T21:45:31.180Z,10.6
2022-10-20T21:49:32.387Z,10.6
2022-10-20T21:53:32.541Z,10.6
2022-10-20T21:57:31.826Z,10.6
2022-10-20T22:01:43.467Z,10.6
2022-10-20T22:05:31.635Z,10.6
2022-10-20T22:09:31.804Z,10.6
2022-10-20T22:13:32.798Z,10.6
2022-10-20T22:17:32.177Z,10.6
2022-10-20T22:21:36.117Z,10.6
2022-10-20T22:25:32.134Z,10.6
2022-10-20T22:29:31.622Z,10.6
2022-10-20T22:33:32.420Z,10.6
2022-10-20T22:37:31.469Z,10.6
2022-10-20T22:41:31.756Z,10.6
2022-10-20T22:45:31.511Z,10.6
2022-10-20T22:49:31.967Z,10.6
2022-10-20T22:53:32.003Z,10.6
2022-10-20T22:57:31.807Z,10.6
2022-10-20T23:01:34.898Z,10.6
2022-10-20T23:05:32.326Z,10.6
2022-10-20T23:09:32.156Z,10.6
2022-10-20T23:13:32.754Z,10.6
2022-10-20T23:17:32.302Z,10.6
2022-10-20T23:21:32.299Z,10.6
2022-10-20T23:25:31.610Z,10.6
2022-10-20T23:29:31.962Z,10.6
2022-10-20T23:33:32.191Z,10.6
2022-10-20T23:37:36.063Z,10.6
2022-10-20T23:41:32.312Z,10.6
2022-10-20T23:45:34.104Z,10.6
2022-10-20T23:49:31.474Z,10.6
2022-10-20T23:53:32.190Z,10.6
2022-10-20T23:57:31.672Z,10.6
